• Join FlightAware (Why Join?)
  • Login
  • US Flag 
04:22PM EDT


 

Airport Tracker/Info


-or-


 

Live Flight TrackerFlight Track Log ✈ EJA396 ✈ 10-Dec-2013 ✈ KAPA - KSEE

Flight Track Log - Related Links

Times and Time Zones

All times are in EST time to prevent confusion due to time zone crossing. See the EJA396 flight status page for this flight to view local times or setup timezone preferences in your user account.

Time Position Orientation Groundspeed Altitude Reporting Facility
EST Latitude Longitude Course Direction KTS MPH feet Rate Location/Type
05:08PM 39.6333 -104.9000 239° Southwest 223 257 9,800  Level Denver TRACON
05:09PM 39.6303 -104.9497 265° West 216 249 12,900 3,660 Climbing Denver Center
05:10PM 39.6214 -105.0242 261° West 244 281 16,300 3,720 Climbing Denver Center
05:11PM 39.6081 -105.1458 262° West 276 318 20,600 2,880 Climbing Denver Center
05:12PM 39.5933 -105.2639 261° West 338 389 22,400 1,920 Climbing Denver Center
05:13PM 39.3131 -105.4021 239° Southwest  Level Estimated
05:13PM 39.5789 -105.3919 262° West 364 419 24,600  Level Denver Center
05:14PM 39.5639 -105.5253 262° West 371 427 27,300 2,340 Climbing Denver Center
05:15PM 39.5431 -105.6581 259° West 377 434 29,500 2,160 Climbing Denver Center
05:16PM 39.4983 -105.8108 249° West 380 437 31,800 1,860 Climbing Denver Center
05:17PM 39.4650 -105.9372 251° West 374 430 33,400 1,560 Climbing Denver Center
05:18PM 39.4308 -106.0617 250° West 370 426 35,100 1,500 Climbing Denver Center
05:19PM 39.3936 -106.1936 250° West 368 423 36,500 1,140 Climbing Denver Center
05:20PM 39.3597 -106.3122 250° West 367 422 37,500 960 Climbing Denver Center
05:21PM 39.3067 -106.4447 243° Southwest 370 426 38,600 960 Climbing Denver Center
05:22PM 39.2497 -106.5547 236° Southwest 379 436 39,500 660 Climbing Denver Center
05:23PM 39.1869 -106.6814 237° Southwest 376 433 40,000 240 Climbing Denver Center
05:24PM 39.1317 -106.7922 237° Southwest 380 437 40,000  Level Denver Center
05:25PM 39.0631 -106.9239 236° Southwest 389 448 40,000  Level Denver Center
05:26PM 39.0072 -107.0336 237° Southwest 386 444 40,000  Level Denver Center
05:27PM 38.9411 -107.1642 237° Southwest 387 445 40,000  Level Denver Center
05:28PM 38.8842 -107.2764 237° Southwest 391 450 40,000  Level Denver Center
05:29PM 38.8281 -107.3856 237° Southwest 384 442 40,000  Level Denver Center
05:31PM 38.7617 -107.5133 236° Southwest 385 443 40,000  Level Denver Center
05:32PM 38.6847 -107.6628 237° Southwest 391 450 40,000  Level Denver Center
05:33PM 38.6275 -107.7725 236° Southwest 388 447 40,000  Level Denver Center
05:34PM 38.5619 -107.8997 237° Southwest 385 443 40,000  Level Denver Center
05:35PM 38.5056 -108.0083 236° Southwest 383 441 40,000  Level Denver Center
05:36PM 38.4489 -108.1156 236° Southwest 381 438 40,000  Level Denver Center
05:38PM 38.3269 -108.3472 236° Southwest 377 434 40,000  Level Denver Center
05:39PM 38.2603 -108.4719 236° Southwest 379 436 40,000  Level Denver Center
05:40PM 38.2031 -108.5803 236° Southwest 383 441 40,000  Level Denver Center
05:41PM 38.1364 -108.7067 236° Southwest 383 441 40,000  Level Denver Center
05:42PM 38.0775 -108.8150 235° Southwest 388 447 40,000  Level Denver Center
05:43PM 38.0106 -108.9350 235° Southwest 379 436 40,000  Level Denver Center
05:44PM 37.9519 -109.0447 236° Southwest 387 445 40,000  Level Denver Center
05:45PM 37.8842 -109.1722 236° Southwest 390 449 40,000  Level Denver Center
05:46PM 37.8253 -109.2803 235° Southwest 390 449 40,000  Level Denver Center
05:47PM 37.7561 -109.4053 235° Southwest 388 447 40,000  Level Denver Center
05:48PM 37.6981 -109.5122 236° Southwest 386 444 40,000  Level Denver Center
05:49PM 37.6392 -109.6192 235° Southwest 387 445 40,000  Level Denver Center
05:50PM 37.5703 -109.7439 235° Southwest 389 448 40,000  Level Denver Center
05:51PM 37.5114 -109.8503 235° Southwest 386 444 40,000  Level Denver Center
05:52PM 37.4414 -109.9758 235° Southwest 392 451 40,000  Level Denver Center
05:53PM 37.3833 -110.0811 235° Southwest 385 443 40,000  Level Denver Center
05:54PM 37.3178 -110.1964 234° Southwest 388 447 40,000  Level Denver Center
05:55PM 37.2689 -110.2853 235° Southwest 387 445 40,000  Level Denver Center
05:56PM 37.1933 -110.4194 235° Southwest 390 449 40,000  Level Denver Center
05:57PM 37.1189 -110.5519 235° Southwest 388 447 40,000  Level Denver Center
05:58PM 37.0556 -110.6628 234° Southwest 391 450 40,000  Level Denver Center
06:00PM 36.9919 -110.7739 234° Southwest 392 451 40,000  Level Denver Center
06:01PM 36.9292 -110.8850 235° Southwest 391 450 40,000  Level Denver Center
06:02PM 36.8653 -110.9967 234° Southwest 395 455 40,000  Level Denver Center
06:03PM 36.8017 -111.1072 234° Southwest 393 452 40,000  Level Denver Center
06:04PM 36.7378 -111.2169 234° Southwest 392 451 40,000  Level Denver Center
06:05PM 36.6617 -111.3494 234° Southwest 391 450 40,000  Level Denver Center
06:06PM 36.5972 -111.4603 234° Southwest 394 453 40,000  Level Denver Center
06:07PM 36.5322 -111.5708 234° Southwest 395 455 40,000  Level Denver Center
06:07PM 36.4922 -111.6383 234° Southwest 395 455 40,000  Level Los Angeles Center
06:08PM 36.4283 -111.7478 234° Southwest 392 451 40,000  Level Los Angeles Center
06:09PM 36.3522 -111.8786 234° Southwest 391 450 40,000  Level Los Angeles Center
06:10PM 36.2889 -111.9869 234° Southwest 389 448 40,000  Level Los Angeles Center
06:12PM 36.2253 -112.0953 234° Southwest 388 447 40,000  Level Los Angeles Center
06:13PM 36.1431 -112.2322 233° Southwest 389 448 40,000  Level Los Angeles Center
06:14PM 36.0722 -112.3514 234° Southwest 382 440 40,000  Level Los Angeles Center
06:15PM 36.0081 -112.4594 234° Southwest 388 447 40,000  Level Los Angeles Center
06:16PM 35.9394 -112.5725 233° Southwest 388 447 40,000  Level Los Angeles Center
06:17PM 35.8617 -112.7022 234° Southwest 393 452 40,000  Level Los Angeles Center
06:18PM 35.7833 -112.8311 233° Southwest 394 453 40,000  Level Los Angeles Center
06:19PM 35.7189 -112.9394 234° Southwest 397 457 40,000  Level Los Angeles Center
06:20PM 35.6531 -113.0453 233° Southwest 390 449 40,000  Level Los Angeles Center
06:21PM 35.5864 -113.1561 234° Southwest 399 459 40,000  Level Los Angeles Center
06:22PM 35.5203 -113.2642 233° Southwest 397 457 40,000  Level Los Angeles Center
06:24PM 35.4422 -113.3894 233° Southwest 404 465 40,000 -60 Level Los Angeles Center
06:25PM 35.3761 -113.4975 233° Southwest 402 463 39,900 -780 Descending Los Angeles Center
06:26PM 35.3103 -113.6050 233° Southwest 399 459 38,400 -1,500 Descending Los Angeles Center
06:27PM 35.2472 -113.7072 233° Southwest 383 441 36,800 -1,320 Descending Los Angeles Center
06:28PM 35.1681 -113.8333 233° Southwest 392 451 35,700 -960 Descending Los Angeles Center
06:29PM 35.1139 -113.9203 233° Southwest 402 463 34,900 -900 Descending Los Angeles Center
06:30PM 35.0419 -114.0358 233° Southwest 388 447 33,900 -1,020 Descending Los Angeles Center
06:31PM 34.9628 -114.1617 233° Southwest 389 448 32,800 -1,020 Descending Los Angeles Center
06:32PM 34.8950 -114.2689 232° Southwest 397 457 31,800 -1,020 Descending Los Angeles Center
06:33PM 34.8261 -114.3794 233° Southwest 408 470 30,800 -900 Descending Los Angeles Center
06:34PM 34.7531 -114.4942 232° Southwest 427 491 30,000 -420 Descending Los Angeles Center
06:35PM 34.6758 -114.6092 231° Southwest 436 502 30,000  Level Los Angeles Center
06:36PM 34.5894 -114.7364 231° Southwest 437 503 30,000  Level Los Angeles Center
06:37PM 34.5067 -114.8456 227° Southwest 440 506 30,000 -60 Level Los Angeles Center
06:38PM 34.4233 -114.9536 227° Southwest 440 506 29,900 -780 Descending Los Angeles Center
06:39PM 34.3417 -115.0597 227° Southwest 435 501 28,400 -960 Descending Los Angeles Center
06:40PM 34.2444 -115.1850 227° Southwest 429 494 28,000 -240 Descending Los Angeles Center
06:41PM 34.1633 -115.2889 227° Southwest 427 491 28,000  Level Los Angeles Center
06:42PM 34.0831 -115.3953 228° Southwest 428 493 28,000  Level Los Angeles Center
06:43PM 33.9867 -115.5175 226° Southwest 422 486 28,000  Level Los Angeles Center
06:45PM 33.8881 -115.6431 227° Southwest 428 493 28,000 -480 Level Los Angeles Center
06:46PM 33.7911 -115.7678 227° Southwest 427 491 26,800 -1,680 Descending Los Angeles Center
06:47PM 33.6956 -115.8883 226° Southwest 419 482 24,500 -1,380 Descending Los Angeles Center
06:48PM 33.6156 -115.9881 226° Southwest 417 480 24,000 -300 Descending Los Angeles Center
06:49PM 33.5372 -116.0900 227° Southwest 417 480 24,000  Level Los Angeles Center
06:50PM 33.4556 -116.1908 226° Southwest 420 483 24,000 -960 Level Los Angeles Center
06:51PM 33.3603 -116.2653 213° Southwest 411 473 22,100 -2,040 Descending Los Angeles Center
06:52PM 33.2483 -116.3444 211° Southwest 395 455 19,400 -2,400 Descending Los Angeles Center
06:53PM 33.1431 -116.4189 211° Southwest 376 433 16,700 -2,280 Descending Los Angeles Center
06:54PM 33.0558 -116.4806 211° Southwest 370 426 14,700 -1,980 Descending Los Angeles Center
06:55PM 32.9708 -116.5403 211° Southwest 363 418 12,600 -2,280 Descending Los Angeles Center
06:56PM 32.8836 -116.6003 210° Southwest 311 358 10,000 -2,580 Descending Los Angeles Center
06:57PM 32.8303 -116.6664 226° Southwest 293 337 7,300 -2,100 Descending Los Angeles Center
06:58PM 32.7942 -116.7436 241° Southwest 279 321 5,700 -1,200 Descending Los Angeles Center
07:00PM 32.7981 -116.8253 273° West 261 300 4,900 -1,320 Descending Los Angeles Center
07:01PM 32.8131 -116.8956 284° West 239 275 3,000 -1,560 Descending Los Angeles Center
07:02PM 32.8231 -116.9408 285° West 178 205 1,700 -1,260 Descending Los Angeles Center
07:04PM 32.8167 -116.9667 283° West  Level FlightAware Approximate
07:11PM 32.8262 -116.9724 283° West  Level Estimated
07:12PM 32.8262 -116.9724 283° West  Level Estimated
07:13PM 32.8262 -116.9724 283° West  Level Estimated
07:14PM 32.8262 -116.9724 283° West  Level Estimated